createdAt,value
2019-01-09T00:01:14.635Z,100113.84
2019-01-09T00:03:43.707Z,100111.87
2019-01-09T00:06:12.935Z,100103.89
2019-01-09T00:08:42.014Z,100103.58
2019-01-09T00:11:11.364Z,100103.58
2019-01-09T00:13:40.569Z,100103.08
2019-01-09T00:16:10.096Z,100103.55
2019-01-09T00:18:39.356Z,100090.94
2019-01-09T00:21:08.562Z,100099.42
2019-01-09T00:23:37.624Z,100090.93
2019-01-09T00:26:06.754Z,100092.45
2019-01-09T00:28:35.973Z,100075.34
2019-01-09T00:31:05.160Z,100075.34
2019-01-09T00:33:34.418Z,100078.00
2019-01-09T00:36:03.529Z,100082.30
2019-01-09T00:38:32.889Z,100074.36
2019-01-09T00:41:02.009Z,100072.52
2019-01-09T00:43:31.280Z,100077.98
2019-01-09T00:46:00.462Z,100078.64
2019-01-09T00:48:29.846Z,100081.65
2019-01-09T00:50:58.902Z,100085.30
2019-01-09T00:53:28.099Z,100094.92
2019-01-09T00:55:57.372Z,100103.06
2019-01-09T00:58:26.492Z,100092.77
2019-01-09T01:00:55.843Z,100100.93
2019-01-09T01:04:03.060Z,100098.91
2019-01-09T01:07:15.203Z,100092.44
2019-01-09T01:10:21.548Z,100092.59
2019-01-09T01:13:27.689Z,100082.80
2019-01-09T01:16:33.089Z,100083.28
2019-01-09T01:19:54.288Z,100077.33
2019-01-09T01:22:42.525Z,100073.98
2019-01-09T01:26:03.787Z,100078.64
2019-01-09T01:28:47.583Z,100072.52
2019-01-09T01:31:49.335Z,100070.68
2019-01-09T01:34:40.608Z,100074.48
2019-01-09T01:37:55.821Z,100081.63
2019-01-09T01:41:00.005Z,100076.98
2019-01-09T01:43:52.497Z,100078.81
2019-01-09T01:47:04.705Z,100076.98
2019-01-09T01:50:09.880Z,100071.84
2019-01-09T01:53:23.127Z,100077.98
2019-01-09T01:56:08.387Z,100063.22
2019-01-09T01:59:23.920Z,100053.44
2019-01-09T02:02:24.460Z,100061.39
2019-01-09T02:05:24.775Z,100052.28
2019-01-09T02:08:07.915Z,100052.28
2019-01-09T02:11:17.894Z,100058.41
2019-01-09T02:14:20.685Z,100049.62
2019-01-09T02:17:39.517Z,100045.45
2019-01-09T02:20:58.779Z,100051.12
2019-01-09T02:24:18.151Z,100041.97
2019-01-09T02:27:31.253Z,100050.63
2019-01-09T02:30:23.204Z,100056.43
2019-01-09T02:32:52.382Z,100045.31
2019-01-09T02:35:21.500Z,100045.31
2019-01-09T02:37:50.622Z,100053.42
2019-01-09T02:40:19.713Z,100053.42
2019-01-09T02:42:49.017Z,100046.78
2019-01-09T02:45:18.201Z,100041.31
2019-01-09T02:47:47.324Z,100041.31
2019-01-09T02:50:16.592Z,100053.77
2019-01-09T02:52:45.880Z,100034.67
2019-01-09T02:55:14.960Z,100034.67
2019-01-09T02:57:44.534Z,100031.02
2019-01-09T03:00:13.782Z,100026.19
2019-01-09T03:02:42.984Z,100022.70
2019-01-09T03:05:12.215Z,100022.70
2019-01-09T03:07:41.435Z,100031.53
2019-01-09T03:10:12.371Z,100035.66
2019-01-09T03:12:41.668Z,100020.38
2019-01-09T03:15:10.844Z,100020.38
2019-01-09T03:17:39.993Z,100022.05
2019-01-09T03:20:09.179Z,100017.23
2019-01-09T03:22:38.245Z,100024.72
2019-01-09T03:25:07.727Z,100011.27
2019-01-09T03:27:36.921Z,100011.27
2019-01-09T03:30:06.950Z,100018.10
2019-01-09T03:32:36.503Z,100014.27
2019-01-09T03:35:05.720Z,100012.94
2019-01-09T03:37:34.818Z,100008.80
2019-01-09T03:40:04.066Z,100008.80
2019-01-09T03:42:33.128Z,100006.32
2019-01-09T03:45:02.459Z,100002.98
2019-01-09T03:47:31.880Z,100002.98
2019-01-09T03:50:00.933Z,100002.98
2019-01-09T03:52:30.185Z,100004.32
2019-01-09T03:54:59.224Z,100009.47
2019-01-09T03:57:28.719Z,99999.17
2019-01-09T03:59:58.132Z,99990.55
2019-01-09T04:02:27.247Z,99982.06
2019-01-09T04:04:56.284Z,99982.06
2019-01-09T04:07:25.388Z,99987.39
2019-01-09T04:09:54.648Z,99977.75
2019-01-09T04:12:23.883Z,99987.39
2019-01-09T04:14:53.146Z,99987.39
2019-01-09T04:17:22.335Z,99972.94
2019-01-09T04:19:51.468Z,99972.94
2019-01-09T04:22:20.791Z,99970.97
2019-01-09T04:24:49.971Z,99974.44
2019-01-09T04:27:19.064Z,99963.81
2019-01-09T04:29:48.429Z,99959.51
2019-01-09T04:32:17.688Z,99958.85
2019-01-09T04:34:46.793Z,99956.87
2019-01-09T04:37:16.105Z,99953.53
2019-01-09T04:39:45.326Z,99956.92
2019-01-09T04:42:14.434Z,99955.18
2019-01-09T04:44:43.849Z,99955.33
2019-01-09T04:47:12.937Z,99957.42
2019-01-09T04:49:42.200Z,99951.92
2019-01-09T04:52:11.406Z,99947.52
2019-01-09T04:54:40.517Z,99944.48
2019-01-09T04:57:09.864Z,99944.48
2019-01-09T04:59:39.062Z,99937.19
2019-01-09T05:02:08.468Z,99940.20
2019-01-09T05:04:37.668Z,99932.94
2019-01-09T05:07:06.751Z,99932.94
2019-01-09T05:09:36.101Z,99930.45
2019-01-09T05:12:05.390Z,99932.48
2019-01-09T05:14:34.610Z,99932.48
2019-01-09T05:17:03.661Z,99926.69
2019-01-09T05:19:32.786Z,99913.75
2019-01-09T05:22:02.084Z,99927.48
2019-01-09T05:24:31.381Z,99931.66
2019-01-09T05:27:00.604Z,99925.35
2019-01-09T05:29:29.732Z,99925.35
2019-01-09T05:31:58.928Z,99934.32
2019-01-09T05:34:28.210Z,99925.37
2019-01-09T05:36:57.923Z,99931.50
2019-01-09T05:39:27.041Z,99933.97
2019-01-09T05:41:56.076Z,99933.31
2019-01-09T05:44:25.160Z,99930.66
2019-01-09T05:46:54.428Z,99925.72
2019-01-09T05:49:23.644Z,99926.17
2019-01-09T05:51:52.813Z,99924.20
2019-01-09T05:54:22.053Z,99926.67
2019-01-09T05:56:51.130Z,99917.55
2019-01-09T05:59:20.409Z,99917.37
2019-01-09T06:01:49.614Z,99908.59
2019-01-09T06:04:18.754Z,99914.42
2019-01-09T06:06:48.112Z,99914.42
2019-01-09T06:09:17.234Z,99910.11
2019-01-09T06:11:46.560Z,99910.11
2019-01-09T06:14:15.803Z,99912.59
2019-01-09T06:16:45.183Z,99910.08
2019-01-09T06:19:15.560Z,99917.39
2019-01-09T06:21:44.630Z,99919.20
2019-01-09T06:24:13.767Z,99925.53
2019-01-09T06:26:42.867Z,99926.05
2019-01-09T06:29:11.959Z,99941.14
2019-01-09T06:31:41.261Z,99939.32
2019-01-09T06:34:10.673Z,99937.97
2019-01-09T06:36:39.749Z,99938.98
2019-01-09T06:39:08.861Z,99947.42
2019-01-09T06:41:38.257Z,99948.43
2019-01-09T06:44:07.707Z,99952.72
2019-01-09T06:46:36.800Z,99952.72
2019-01-09T06:49:05.849Z,99961.19
2019-01-09T06:51:34.945Z,99961.19
2019-01-09T06:54:05.150Z,99963.53
2019-01-09T06:56:34.575Z,99963.53
2019-01-09T06:59:03.668Z,99963.53
2019-01-09T07:01:32.963Z,99961.72
2019-01-09T07:04:02.317Z,99960.22
2019-01-09T07:06:31.474Z,99960.03
2019-01-09T07:09:00.549Z,99951.42
2019-01-09T07:11:29.851Z,99964.36
2019-01-09T07:13:59.366Z,99974.12
2019-01-09T07:16:28.452Z,99970.31
2019-01-09T07:18:57.819Z,99974.14
2019-01-09T07:21:28.811Z,99981.27
2019-01-09T07:23:57.875Z,99989.22
2019-01-09T07:26:26.940Z,99986.58
2019-01-09T07:28:56.594Z,99986.58
2019-01-09T07:31:25.671Z,99986.23
2019-01-09T07:33:54.697Z,99991.91
2019-01-09T07:36:23.798Z,99992.07
2019-01-09T07:38:53.205Z,99999.19
2019-01-09T07:41:22.442Z,100000.50
2019-01-09T07:43:51.559Z,99999.19
2019-01-09T07:46:20.919Z,100003.33
2019-01-09T07:48:50.246Z,100003.33
2019-01-09T07:51:19.342Z,100003.52
2019-01-09T07:53:48.620Z,99998.03
2019-01-09T07:56:17.703Z,99998.52
2019-01-09T07:58:46.979Z,99998.02
2019-01-09T08:01:17.179Z,99998.02
2019-01-09T08:03:46.392Z,100003.98
2019-01-09T08:06:15.577Z,100008.47
2019-01-09T08:08:44.825Z,100011.30
2019-01-09T08:11:13.904Z,100011.30
2019-01-09T08:13:43.134Z,100009.63
2019-01-09T08:16:12.497Z,100008.80
2019-01-09T08:18:41.733Z,100018.78
2019-01-09T08:21:10.980Z,100017.12
2019-01-09T08:23:40.086Z,100011.62
2019-01-09T08:26:09.302Z,100021.93
2019-01-09T08:28:38.567Z,100028.21
2019-01-09T08:31:07.801Z,100022.90
2019-01-09T08:33:37.006Z,100020.77
2019-01-09T08:36:06.295Z,100029.53
2019-01-09T08:38:35.460Z,100025.73
2019-01-09T08:41:04.940Z,100030.72
2019-01-09T08:43:34.066Z,100034.19
2019-01-09T08:46:03.294Z,100040.00
2019-01-09T08:48:32.338Z,100055.78
2019-01-09T08:51:01.542Z,100050.12
2019-01-09T08:53:30.786Z,100053.27
2019-01-09T08:55:59.959Z,100055.77
2019-01-09T08:58:29.258Z,100058.42
2019-01-09T09:00:58.458Z,100055.77
2019-01-09T09:03:27.665Z,100057.09
2019-01-09T09:05:56.885Z,100062.55
2019-01-09T09:08:26.114Z,100061.59
2019-01-09T09:10:55.281Z,100063.73
2019-01-09T09:13:40.791Z,100071.36
2019-01-09T09:16:11.483Z,100071.88
2019-01-09T09:18:40.679Z,100079.34
2019-01-09T09:21:09.731Z,100075.84
2019-01-09T09:23:39.089Z,100073.37
2019-01-09T09:26:08.172Z,100080.50
2019-01-09T09:28:37.491Z,100084.48
2019-01-09T09:31:06.623Z,100077.17
2019-01-09T09:33:35.869Z,100080.33
2019-01-09T09:36:05.287Z,100082.82
2019-01-09T09:38:34.356Z,100086.30
2019-01-09T09:41:03.409Z,100092.44
2019-01-09T09:43:32.712Z,100077.16
2019-01-09T09:46:01.972Z,100090.28
2019-01-09T09:48:31.194Z,100086.81
2019-01-09T09:51:00.499Z,100093.59
2019-01-09T09:53:29.607Z,100100.75
2019-01-09T09:55:58.981Z,100091.45
2019-01-09T09:58:28.112Z,100088.28
2019-01-09T10:00:57.244Z,100094.13
2019-01-09T10:03:26.483Z,100098.27
2019-01-09T10:05:55.801Z,100097.73
2019-01-09T10:08:29.502Z,100094.44
2019-01-09T10:10:56.144Z,100100.57
2019-01-09T10:13:25.324Z,100101.73
2019-01-09T10:15:54.715Z,100089.77
2019-01-09T10:18:23.740Z,100095.76
2019-01-09T10:20:54.394Z,100094.43
2019-01-09T10:23:23.613Z,100097.58
2019-01-09T10:25:52.683Z,100094.77
2019-01-09T10:28:21.712Z,100086.98
2019-01-09T10:30:51.022Z,100085.16
2019-01-09T10:33:20.079Z,100077.84
2019-01-09T10:35:49.102Z,100081.98
2019-01-09T10:38:18.123Z,100080.33
2019-01-09T10:40:47.189Z,100080.00
2019-01-09T10:43:16.232Z,100075.86
2019-01-09T10:45:45.300Z,100076.19
2019-01-09T10:48:14.456Z,100082.33
2019-01-09T10:50:43.663Z,100084.63
2019-01-09T10:53:12.925Z,100089.44
2019-01-09T10:55:42.085Z,100089.11
2019-01-09T10:58:11.407Z,100088.45
2019-01-09T11:00:40.692Z,100085.77
2019-01-09T11:03:09.760Z,100087.25
2019-01-09T11:05:39.022Z,100086.91
2019-01-09T11:08:08.308Z,100081.92
2019-01-09T11:10:37.441Z,100085.42
2019-01-09T11:13:06.719Z,100082.39
2019-01-09T11:15:35.813Z,100078.25
2019-01-09T11:18:05.327Z,100078.29
2019-01-09T11:20:34.386Z,100078.77
2019-01-09T11:23:03.692Z,100071.64
2019-01-09T11:25:32.827Z,100062.47
2019-01-09T11:28:02.109Z,100070.66
2019-01-09T11:30:31.303Z,100056.16
2019-01-09T11:33:00.408Z,100053.55
2019-01-09T11:35:29.581Z,100057.20
2019-01-09T11:37:58.955Z,100059.03
2019-01-09T11:40:28.014Z,100072.99
2019-01-09T11:42:57.312Z,100056.88
2019-01-09T11:45:26.589Z,100058.23
2019-01-09T11:47:56.946Z,100061.06
2019-01-09T11:50:26.129Z,100050.13
2019-01-09T11:52:55.441Z,100048.80
2019-01-09T11:55:24.603Z,100049.27
2019-01-09T11:57:53.637Z,100031.53
2019-01-09T12:00:27.846Z,100043.48
2019-01-09T12:02:57.001Z,100032.53
2019-01-09T12:05:26.172Z,100024.23
2019-01-09T12:07:55.569Z,100024.53
2019-01-09T12:10:30.173Z,100018.89
2019-01-09T12:12:56.290Z,100022.72
2019-01-09T12:15:25.345Z,100028.52
2019-01-09T12:17:54.682Z,100029.69
2019-01-09T12:20:23.826Z,100034.48
2019-01-09T12:22:53.112Z,100043.77
2019-01-09T12:25:22.217Z,100074.00
2019-01-09T12:27:51.341Z,100084.82
2019-01-09T12:30:28.774Z,100065.45
2019-01-09T12:32:58.898Z,100065.45
2019-01-09T12:35:27.974Z,100067.52
2019-01-09T12:37:57.059Z,100066.12
2019-01-09T12:40:27.018Z,100065.35
2019-01-09T12:42:56.284Z,100072.28
2019-01-09T12:45:25.526Z,100088.02
2019-01-09T12:47:54.939Z,100063.50
2019-01-09T12:50:26.884Z,100053.66
2019-01-09T12:52:56.065Z,100051.03
2019-01-09T12:55:25.346Z,100052.73
2019-01-09T12:57:54.458Z,100046.27
2019-01-09T13:00:29.531Z,100040.49
2019-01-09T13:02:58.925Z,100047.44
2019-01-09T13:05:28.534Z,100043.31
2019-01-09T13:07:57.621Z,100058.73
2019-01-09T13:10:27.008Z,100051.80
2019-01-09T13:12:56.144Z,100051.80
2019-01-09T13:15:25.258Z,100061.38
2019-01-09T13:17:54.328Z,100050.80
2019-01-09T13:20:23.488Z,100050.80
2019-01-09T13:22:52.774Z,100055.08
2019-01-09T13:25:21.964Z,100059.73
2019-01-09T13:27:51.087Z,100059.75
2019-01-09T13:30:22.158Z,100062.80
2019-01-09T13:32:51.469Z,100051.92
2019-01-09T13:35:20.573Z,100061.68
2019-01-09T13:37:49.822Z,100061.68
2019-01-09T13:40:22.031Z,100048.08
2019-01-09T13:42:51.213Z,100056.38
2019-01-09T13:45:21.862Z,100055.04
2019-01-09T13:47:50.991Z,100056.72
2019-01-09T13:50:20.623Z,100053.38
2019-01-09T13:52:49.925Z,100061.22
2019-01-09T13:55:19.494Z,100061.22
2019-01-09T13:57:48.778Z,100064.11
2019-01-09T14:00:22.413Z,100064.11
2019-01-09T14:02:52.112Z,100062.84
2019-01-09T14:05:21.285Z,100068.92
2019-01-09T14:07:50.580Z,100068.92
2019-01-09T14:10:22.238Z,100058.55
2019-01-09T14:12:51.660Z,100058.55
2019-01-09T14:15:21.442Z,100067.98
2019-01-09T14:17:50.624Z,100049.91
2019-01-09T14:20:20.272Z,100049.91
2019-01-09T14:22:49.565Z,100059.03
2019-01-09T14:25:18.776Z,100054.56
2019-01-09T14:27:47.847Z,100067.84
2019-01-09T14:30:25.572Z,100067.84
2019-01-09T14:32:55.201Z,100070.06
2019-01-09T14:35:24.478Z,100070.06
2019-01-09T14:37:53.715Z,100068.91
2019-01-09T14:40:23.157Z,100068.91
2019-01-09T14:42:52.253Z,100066.73
2019-01-09T14:45:21.429Z,100067.94
2019-01-09T14:47:50.499Z,100077.75
2019-01-09T14:50:22.106Z,100077.75
2019-01-09T14:52:51.214Z,100087.72
2019-01-09T14:55:20.573Z,100087.72
2019-01-09T14:57:49.655Z,100070.95
2019-01-09T15:00:21.520Z,100088.04
2019-01-09T15:02:50.745Z,100094.20
2019-01-09T15:05:20.028Z,100094.00
2019-01-09T15:07:49.443Z,100095.00
2019-01-09T15:10:24.097Z,100100.79
2019-01-09T15:12:53.568Z,100103.64
2019-01-09T15:15:22.665Z,100112.64
2019-01-09T15:17:51.915Z,100125.59
2019-01-09T15:20:21.216Z,100125.59
2019-01-09T15:22:50.371Z,100121.28
2019-01-09T15:25:19.850Z,100135.00
2019-01-09T15:27:49.867Z,100124.86
2019-01-09T15:30:21.189Z,100124.91
2019-01-09T15:32:50.450Z,100117.27
2019-01-09T15:35:19.643Z,100122.05
2019-01-09T15:37:48.728Z,100123.53
2019-01-09T15:40:20.109Z,100121.41
2019-01-09T15:42:49.953Z,100128.03
2019-01-09T15:45:19.080Z,100128.03
2019-01-09T15:47:48.509Z,100124.66
2019-01-09T15:50:19.078Z,100132.45
2019-01-09T15:52:48.720Z,100132.63
2019-01-09T15:55:18.176Z,100119.88
2019-01-09T15:57:47.897Z,100119.88
2019-01-09T16:00:20.487Z,100130.33
2019-01-09T16:02:49.616Z,100139.50
2019-01-09T16:05:18.818Z,100139.50
2019-01-09T16:07:48.378Z,100135.80
2019-01-09T16:10:17.995Z,100161.31
2019-01-09T16:12:48.649Z,100169.69
2019-01-09T16:15:18.044Z,100188.80
2019-01-09T16:17:48.044Z,100188.80
2019-01-09T16:20:18.932Z,100179.66
2019-01-09T16:22:48.470Z,100182.22
2019-01-09T16:25:18.010Z,100182.22
2019-01-09T16:27:47.116Z,100184.22
2019-01-09T16:30:40.618Z,100179.25
2019-01-09T16:33:09.774Z,100186.24
2019-01-09T16:35:39.265Z,100186.24
2019-01-09T16:38:08.847Z,100201.66
2019-01-09T16:40:38.350Z,100205.46
2019-01-09T16:43:07.591Z,100205.46
2019-01-09T16:45:37.761Z,100205.00
2019-01-09T16:48:06.949Z,100204.79
2019-01-09T16:50:36.320Z,100210.30
2019-01-09T16:53:05.411Z,100219.69
2019-01-09T16:55:34.544Z,100219.69
2019-01-09T16:58:03.683Z,100215.72
2019-01-09T17:00:32.996Z,100215.72
2019-01-09T17:03:02.186Z,100209.78
2019-01-09T17:05:31.417Z,100221.05
2019-01-09T17:08:00.700Z,100221.05
2019-01-09T17:10:32.559Z,100229.25
2019-01-09T17:13:00.891Z,100215.67
2019-01-09T17:15:30.449Z,100215.67
2019-01-09T17:18:00.381Z,100228.14
2019-01-09T17:20:29.708Z,100224.97
2019-01-09T17:22:58.943Z,100234.40
2019-01-09T17:25:28.167Z,100238.50
2019-01-09T17:27:57.389Z,100238.50
2019-01-09T17:30:28.079Z,100241.14
2019-01-09T17:32:58.124Z,100245.09
2019-01-09T17:35:27.341Z,100251.63
2019-01-09T17:37:56.451Z,100251.63
2019-01-09T17:40:25.644Z,100254.58
2019-01-09T17:42:55.757Z,100254.58
2019-01-09T17:45:24.824Z,100252.59
2019-01-09T17:47:54.524Z,100252.59
2019-01-09T17:50:26.595Z,100253.95
2019-01-09T17:52:56.597Z,100253.95
2019-01-09T17:55:25.816Z,100254.55
2019-01-09T17:57:55.113Z,100254.55
2019-01-09T18:00:26.978Z,100252.17
2019-01-09T18:02:56.178Z,100252.17
2019-01-09T18:05:25.286Z,100257.20
2019-01-09T18:07:54.603Z,100260.75
2019-01-09T18:10:23.915Z,100260.75
2019-01-09T18:12:53.325Z,100270.56
2019-01-09T18:15:23.542Z,100270.56
2019-01-09T18:17:53.338Z,100274.87
2019-01-09T18:20:22.757Z,100277.73
2019-01-09T18:22:52.020Z,100277.73
2019-01-09T18:25:23.335Z,100277.52
2019-01-09T18:27:52.655Z,100276.34
2019-01-09T18:30:37.037Z,100284.95
2019-01-09T18:33:13.067Z,100284.95
2019-01-09T18:36:15.961Z,100292.53
2019-01-09T18:38:56.482Z,100286.20
2019-01-09T18:41:51.129Z,100285.97
2019-01-09T18:44:44.739Z,100295.24
2019-01-09T18:47:41.414Z,100297.05
2019-01-09T18:51:10.043Z,100297.05
2019-01-09T18:53:42.283Z,100305.33
2019-01-09T18:56:13.272Z,100310.56
2019-01-09T18:58:42.426Z,100310.56
2019-01-09T19:01:14.100Z,100307.23
2019-01-09T19:03:43.598Z,100320.87
2019-01-09T19:06:13.225Z,100320.87
2019-01-09T19:08:42.370Z,100311.53
2019-01-09T19:11:11.714Z,100320.87
2019-01-09T19:13:41.169Z,100320.87
2019-01-09T19:16:10.614Z,100328.59
2019-01-09T19:18:40.093Z,100327.12
2019-01-09T19:21:09.532Z,100327.12
2019-01-09T19:23:38.647Z,100328.66
2019-01-09T19:26:07.793Z,100333.81
2019-01-09T19:28:36.977Z,100333.81
2019-01-09T19:31:06.148Z,100339.26
2019-01-09T19:33:35.391Z,100342.09
2019-01-09T19:36:04.946Z,100337.72
2019-01-09T19:38:34.270Z,100337.72
2019-01-09T19:41:03.701Z,100340.59
2019-01-09T19:43:35.342Z,100346.25
2019-01-09T19:46:04.701Z,100349.11
2019-01-09T19:48:34.269Z,100346.10
2019-01-09T19:51:05.311Z,100347.79
2019-01-09T19:53:34.933Z,100349.56
2019-01-09T19:56:04.375Z,100349.56
2019-01-09T19:58:33.515Z,100360.67
2019-01-09T20:01:02.692Z,100371.38
2019-01-09T20:03:31.963Z,100360.70
2019-01-09T20:06:01.236Z,100363.02
2019-01-09T20:08:30.374Z,100363.02
2019-01-09T20:10:59.766Z,100370.97
2019-01-09T20:13:29.376Z,100370.53
2019-01-09T20:15:58.929Z,100368.42
2019-01-09T20:18:28.584Z,100374.83
2019-01-09T20:20:57.692Z,100378.63
2019-01-09T20:23:27.435Z,100382.45
2019-01-09T20:25:56.835Z,100382.45
2019-01-09T20:28:26.984Z,100384.77
2019-01-09T20:30:56.266Z,100390.95
2019-01-09T20:33:25.662Z,100385.73
2019-01-09T20:35:55.035Z,100385.73
2019-01-09T20:38:26.376Z,100392.05
2019-01-09T20:40:55.482Z,100391.98
2019-01-09T20:43:24.604Z,100397.02
2019-01-09T20:45:53.756Z,100401.00
2019-01-09T20:48:22.989Z,100396.84
2019-01-09T20:50:52.335Z,100403.83
2019-01-09T20:53:21.536Z,100403.83
2019-01-09T20:55:50.807Z,100394.30
2019-01-09T20:58:19.865Z,100394.30
2019-01-09T21:00:49.197Z,100402.47
2019-01-09T21:03:18.509Z,100405.45
2019-01-09T21:05:50.485Z,100405.45
2019-01-09T21:08:19.754Z,100410.61
2019-01-09T21:10:49.031Z,100418.70
2019-01-09T21:13:18.172Z,100414.25
2019-01-09T21:15:47.542Z,100414.25
2019-01-09T21:18:16.617Z,100417.59
2019-01-09T21:20:45.783Z,100414.58
2019-01-09T21:23:15.015Z,100414.58
2019-01-09T21:25:44.143Z,100422.67
2019-01-09T21:28:13.511Z,100423.52
2019-01-09T21:30:42.766Z,100425.17
2019-01-09T21:33:11.933Z,100425.17
2019-01-09T21:35:41.301Z,100427.38
2019-01-09T21:38:10.399Z,100426.91
2019-01-09T21:40:39.602Z,100435.44
2019-01-09T21:43:09.447Z,100435.44
2019-01-09T21:45:38.773Z,100439.16
2019-01-09T21:48:08.183Z,100441.55
2019-01-09T21:50:37.304Z,100449.44
2019-01-09T21:53:06.874Z,100449.44
2019-01-09T21:55:36.080Z,100450.45
2019-01-09T21:58:05.448Z,100450.45
2019-01-09T22:00:34.728Z,100453.77
2019-01-09T22:03:03.852Z,100453.72
2019-01-09T22:05:33.009Z,100453.02
2019-01-09T22:08:02.125Z,100464.08
2019-01-09T22:10:34.380Z,100476.41
2019-01-09T22:13:03.550Z,100476.41
2019-01-09T22:15:32.694Z,100464.11
2019-01-09T22:18:01.943Z,100464.59
2019-01-09T22:20:31.260Z,100475.48
2019-01-09T22:23:00.333Z,100475.48
2019-01-09T22:25:31.310Z,100472.84
2019-01-09T22:28:00.864Z,100483.09
2019-01-09T22:30:30.731Z,100483.09
2019-01-09T22:33:00.035Z,100478.86
2019-01-09T22:35:29.199Z,100483.27
2019-01-09T22:37:58.436Z,100479.23
2019-01-09T22:40:27.742Z,100495.54
2019-01-09T22:42:56.882Z,100491.80
2019-01-09T22:45:26.203Z,100500.88
2019-01-09T22:47:55.526Z,100506.78
2019-01-09T22:50:25.301Z,100506.78
2019-01-09T22:52:54.746Z,100504.77
2019-01-09T22:55:23.922Z,100506.10
2019-01-09T22:57:52.948Z,100498.12
2019-01-09T23:01:11.998Z,100509.55
2019-01-09T23:03:41.628Z,100509.55
2019-01-09T23:06:10.896Z,100510.69
2019-01-09T23:08:39.964Z,100510.69
2019-01-09T23:11:09.199Z,100503.36
2019-01-09T23:13:38.238Z,100502.89
2019-01-09T23:16:07.413Z,100496.78
2019-01-09T23:18:36.777Z,100491.97
2019-01-09T23:21:06.321Z,100491.97
2019-01-09T23:23:36.085Z,100499.29
2019-01-09T23:26:06.075Z,100504.44
2019-01-09T23:28:35.327Z,100499.59
2019-01-09T23:31:04.716Z,100499.59
2019-01-09T23:33:34.491Z,100516.29
2019-01-09T23:36:03.947Z,100513.16
2019-01-09T23:38:33.222Z,100514.55
2019-01-09T23:41:02.472Z,100511.92
2019-01-09T23:43:31.595Z,100520.26
2019-01-09T23:46:00.883Z,100518.59
2019-01-09T23:48:30.086Z,100518.59
2019-01-09T23:50:59.210Z,100522.51
2019-01-09T23:53:28.775Z,100522.51
2019-01-09T23:55:57.868Z,100528.89
2019-01-09T23:58:27.021Z,100523.83
